createdAt,value
2023-02-21T00:02:19.812Z,7.30
2023-02-21T00:05:05.944Z,6.67
2023-02-21T00:07:53.042Z,6.50
2023-02-21T00:10:39.054Z,5.37
2023-02-21T00:13:25.029Z,5.80
2023-02-21T00:16:11.912Z,5.50
2023-02-21T00:18:58.218Z,5.10
2023-02-21T00:21:46.850Z,5.17
2023-02-21T00:24:37.509Z,5.40
2023-02-21T00:27:23.857Z,5.23
2023-02-21T00:30:10.682Z,5.67
2023-02-21T00:32:56.797Z,5.50
2023-02-21T00:35:42.705Z,5.20
2023-02-21T00:38:29.032Z,5.93
2023-02-21T00:41:16.524Z,6.07
2023-02-21T00:44:02.762Z,6.50
2023-02-21T00:46:48.495Z,6.73
2023-02-21T00:49:34.541Z,6.37
2023-02-21T00:52:20.415Z,5.70
2023-02-21T00:55:06.471Z,6.17
2023-02-21T00:57:53.349Z,6.37
2023-02-21T01:00:42.853Z,6.63
2023-02-21T01:03:29.073Z,6.43
2023-02-21T01:06:16.513Z,6.53
2023-02-21T01:09:03.389Z,5.67
2023-02-21T01:11:50.956Z,5.90
2023-02-21T01:14:38.016Z,6.13
2023-02-21T01:17:24.013Z,6.03
2023-02-21T01:20:10.325Z,6.97
2023-02-21T01:22:56.265Z,6.43
2023-02-21T01:25:42.014Z,5.97
2023-02-21T01:28:28.121Z,7.13
2023-02-21T01:31:15.824Z,6.87
2023-02-21T01:34:01.802Z,6.23
2023-02-21T01:36:47.672Z,7.03
2023-02-21T01:39:34.225Z,7.50
2023-02-21T01:42:20.133Z,6.77
2023-02-21T01:45:07.939Z,6.63
2023-02-21T01:47:55.305Z,7.10
2023-02-21T01:50:44.704Z,7.23
2023-02-21T01:53:35.148Z,7.30
2023-02-21T01:56:23.150Z,8.47
2023-02-21T01:59:11.734Z,7.57
2023-02-21T02:02:04.471Z,8.30
2023-02-21T02:04:52.915Z,7.97
2023-02-21T02:07:39.457Z,7.90
2023-02-21T02:10:27.919Z,6.63
2023-02-21T02:13:16.027Z,7.40
2023-02-21T02:15:58.418Z,6.23
2023-02-21T02:18:52.695Z,6.50
2023-02-21T02:21:59.564Z,6.93
2023-02-21T02:24:51.710Z,7.07
2023-02-21T02:27:39.615Z,7.70
2023-02-21T02:30:33.310Z,7.13
2023-02-21T02:33:43.889Z,6.57
2023-02-21T02:36:17.734Z,6.80
2023-02-21T02:38:54.893Z,6.57
2023-02-21T02:41:29.017Z,6.97
2023-02-21T02:44:07.709Z,6.90
2023-02-21T02:46:39.463Z,7.73
2023-02-21T02:49:11.629Z,6.90
2023-02-21T02:51:41.607Z,7.10
2023-02-21T02:54:11.692Z,7.03
2023-02-21T02:56:40.145Z,6.37
2023-02-21T02:59:11.946Z,6.73
2023-02-21T03:02:05.418Z,7.13
2023-02-21T03:05:01.493Z,7.90
2023-02-21T03:07:39.775Z,8.60
2023-02-21T03:10:17.911Z,7.93
2023-02-21T03:12:52.530Z,7.73
2023-02-21T03:15:25.994Z,8.47
2023-02-21T03:18:00.949Z,9.77
2023-02-21T03:20:31.057Z,8.63
2023-02-21T03:23:03.785Z,8.43
2023-02-21T03:25:35.353Z,8.30
2023-02-21T03:28:05.910Z,7.40
2023-02-21T03:30:47.284Z,7.77
2023-02-21T03:33:15.843Z,8.87
2023-02-21T03:35:44.599Z,9.30
2023-02-21T03:38:14.836Z,9.30
2023-02-21T03:40:43.500Z,8.63
2023-02-21T03:43:12.513Z,8.47
2023-02-21T03:45:50.509Z,7.73
2023-02-21T03:48:31.405Z,7.90
2023-02-21T03:51:07.810Z,8.70
2023-02-21T03:53:39.717Z,7.53
2023-02-21T03:56:09.772Z,8.00
2023-02-21T03:58:58.427Z,8.10
2023-02-21T04:01:26.998Z,7.83
2023-02-21T04:03:56.377Z,7.40
2023-02-21T04:06:25.174Z,8.07
2023-02-21T04:08:55.081Z,7.37
2023-02-21T04:11:25.289Z,8.03
2023-02-21T04:13:55.295Z,8.63
2023-02-21T04:16:23.740Z,7.43
2023-02-21T04:18:54.417Z,8.07
2023-02-21T04:21:22.955Z,7.67
2023-02-21T04:23:55.582Z,8.43
2023-02-21T04:26:30.096Z,7.23
2023-02-21T04:28:58.676Z,7.87
2023-02-21T04:31:27.027Z,8.97
2023-02-21T04:34:10.614Z,8.97
2023-02-21T04:36:41.081Z,8.03
2023-02-21T04:39:11.178Z,8.90
2023-02-21T04:41:40.721Z,8.77
2023-02-21T04:44:10.460Z,9.03
2023-02-21T04:46:39.070Z,9.50
2023-02-21T04:49:08.781Z,8.87
2023-02-21T04:51:37.208Z,8.23
2023-02-21T04:54:07.899Z,7.67
2023-02-21T04:56:39.873Z,8.60
2023-02-21T04:59:08.254Z,8.17
2023-02-21T05:01:40.455Z,8.33
2023-02-21T05:04:11.253Z,8.53
2023-02-21T05:06:39.619Z,9.33
2023-02-21T05:09:08.048Z,10.45
2023-02-21T05:11:37.801Z,8.57
2023-02-21T05:14:06.226Z,8.77
2023-02-21T05:16:34.769Z,7.77
2023-02-21T05:19:03.630Z,7.40
2023-02-21T05:21:36.244Z,8.70
2023-02-21T05:24:04.828Z,7.97
2023-02-21T05:26:36.308Z,7.40
2023-02-21T05:29:07.203Z,8.23
2023-02-21T05:31:35.741Z,7.87
2023-02-21T05:34:04.110Z,9.13
2023-02-21T05:36:32.609Z,7.60
2023-02-21T05:39:01.103Z,8.20
2023-02-21T05:41:29.614Z,8.73
2023-02-21T05:43:58.362Z,7.43
2023-02-21T05:46:30.732Z,7.70
2023-02-21T05:49:02.647Z,8.03
2023-02-21T05:51:35.860Z,7.00
2023-02-21T05:54:04.550Z,8.00
2023-02-21T05:56:38.546Z,7.90
2023-02-21T05:59:07.380Z,8.40
2023-02-21T06:01:37.518Z,7.17
2023-02-21T06:04:07.755Z,8.33
2023-02-21T06:06:36.655Z,7.07
2023-02-21T06:09:06.281Z,8.37
2023-02-21T06:11:37.825Z,7.57
2023-02-21T06:14:09.150Z,6.50
2023-02-21T06:16:39.850Z,7.03
2023-02-21T06:19:09.769Z,8.00
2023-02-21T06:21:38.505Z,7.57
2023-02-21T06:24:07.261Z,7.57
2023-02-21T06:26:35.941Z,8.50
2023-02-21T06:29:04.837Z,7.47
2023-02-21T06:31:33.351Z,7.80
2023-02-21T06:34:03.248Z,8.47
2023-02-21T06:36:32.294Z,8.97
2023-02-21T06:39:00.708Z,7.73
2023-02-21T06:41:31.486Z,8.20
2023-02-21T06:44:00.491Z,8.00
2023-02-21T06:46:30.831Z,8.40
2023-02-21T06:48:59.769Z,8.83
2023-02-21T06:51:30.368Z,8.67
2023-02-21T06:54:00.434Z,9.37
2023-02-21T06:56:29.469Z,9.07
2023-02-21T06:58:58.367Z,8.63
2023-02-21T07:01:29.148Z,8.20
2023-02-21T07:03:58.136Z,8.90
2023-02-21T07:06:29.742Z,7.67
2023-02-21T07:08:59.911Z,8.20
2023-02-21T07:11:29.274Z,7.53
2023-02-21T07:13:59.526Z,8.00
2023-02-21T07:16:27.988Z,8.47
2023-02-21T07:18:56.515Z,8.23
2023-02-21T07:21:26.899Z,9.20
2023-02-21T07:23:55.378Z,10.27
2023-02-21T07:26:25.282Z,11.13
2023-02-21T07:28:53.733Z,10.70
2023-02-21T07:31:23.521Z,8.80
2023-02-21T07:33:52.054Z,8.90
2023-02-21T07:36:20.491Z,7.60
2023-02-21T07:38:48.905Z,8.80
2023-02-21T07:41:17.921Z,7.80
2023-02-21T07:43:47.697Z,7.53
2023-02-21T07:46:18.519Z,9.93
2023-02-21T07:48:47.176Z,8.70
2023-02-21T07:51:15.758Z,8.23
2023-02-21T07:53:44.483Z,8.07
2023-02-21T07:56:13.090Z,8.87
2023-02-21T07:58:41.522Z,9.30
2023-02-21T08:01:11.358Z,9.30
2023-02-21T08:03:41.006Z,9.23
2023-02-21T08:06:10.260Z,9.70
2023-02-21T08:08:38.709Z,8.60
2023-02-21T08:11:07.229Z,8.63
2023-02-21T08:13:35.666Z,9.40
2023-02-21T08:16:05.196Z,8.83
2023-02-21T08:18:45.618Z,9.13
2023-02-21T08:21:20.154Z,9.67
2023-02-21T08:23:55.846Z,9.37
2023-02-21T08:26:28.759Z,8.87
2023-02-21T08:29:07.518Z,9.00
2023-02-21T08:31:46.323Z,8.27
2023-02-21T08:34:20.252Z,9.00
2023-02-21T08:36:48.611Z,7.80
2023-02-21T08:39:16.960Z,9.67
2023-02-21T08:41:54.037Z,8.40
2023-02-21T08:44:26.256Z,9.73
2023-02-21T08:46:54.739Z,7.83
2023-02-21T08:49:24.638Z,7.37
2023-02-21T08:51:52.943Z,7.67
2023-02-21T08:54:21.402Z,7.50
2023-02-21T08:56:50.232Z,8.10
2023-02-21T08:59:18.682Z,7.40
2023-02-21T09:01:47.058Z,6.70
2023-02-21T09:04:15.411Z,7.73
2023-02-21T09:06:45.128Z,6.57
2023-02-21T09:09:13.493Z,7.73
2023-02-21T09:11:44.330Z,8.67
2023-02-21T09:14:12.668Z,6.67
2023-02-21T09:16:42.074Z,7.80
2023-02-21T09:19:11.236Z,7.50
2023-02-21T09:21:45.457Z,6.90
2023-02-21T09:24:15.763Z,7.20
2023-02-21T09:26:44.124Z,9.47
2023-02-21T09:29:12.520Z,13.20
2023-02-21T09:31:40.890Z,8.63
2023-02-21T09:34:09.299Z,8.80
2023-02-21T09:36:37.768Z,8.77
2023-02-21T09:39:07.340Z,8.13
2023-02-21T09:41:38.413Z,9.37
2023-02-21T09:44:08.207Z,9.10
2023-02-21T09:46:40.310Z,8.60
2023-02-21T09:49:15.072Z,8.07
2023-02-21T09:51:44.324Z,8.27
2023-02-21T09:54:20.881Z,9.70
2023-02-21T09:56:50.980Z,8.60
2023-02-21T09:59:19.416Z,8.33
2023-02-21T10:01:57.705Z,7.47
2023-02-21T10:04:36.023Z,8.13
2023-02-21T10:07:15.405Z,8.10
2023-02-21T10:09:48.161Z,8.20
2023-02-21T10:12:28.293Z,8.20
2023-02-21T10:15:21.214Z,8.03
2023-02-21T10:17:57.619Z,8.60
2023-02-21T10:20:34.185Z,9.90
2023-02-21T10:23:05.085Z,8.23
2023-02-21T10:25:36.985Z,8.87
2023-02-21T10:28:07.026Z,8.63
2023-02-21T10:30:41.021Z,8.70
2023-02-21T10:33:09.774Z,9.97
2023-02-21T10:35:39.839Z,9.00
2023-02-21T10:38:10.936Z,7.97
2023-02-21T10:40:43.180Z,7.80
2023-02-21T10:43:17.407Z,7.87
2023-02-21T10:45:52.430Z,8.47
2023-02-21T10:48:22.646Z,9.00
2023-02-21T10:50:53.473Z,8.80
2023-02-21T10:53:28.923Z,8.47
2023-02-21T10:56:18.729Z,8.23
2023-02-21T10:58:50.419Z,8.90
2023-02-21T11:01:22.892Z,9.03
2023-02-21T11:03:54.636Z,9.20
2023-02-21T11:06:28.235Z,9.17
2023-02-21T11:08:56.744Z,10.20
2023-02-21T11:11:38.858Z,10.53
2023-02-21T11:14:26.326Z,9.57
2023-02-21T11:17:19.160Z,10.23
2023-02-21T11:19:50.678Z,10.00
2023-02-21T11:22:21.871Z,10.37
2023-02-21T11:24:55.256Z,10.83
2023-02-21T11:27:24.055Z,10.53
2023-02-21T11:29:55.568Z,10.47
2023-02-21T11:32:29.750Z,10.13
2023-02-21T11:35:08.825Z,9.50
2023-02-21T11:37:50.277Z,9.30
2023-02-21T11:40:25.309Z,10.60
2023-02-21T11:43:11.038Z,10.93
2023-02-21T11:45:44.753Z,9.50
2023-02-21T11:48:18.301Z,9.67
2023-02-21T11:50:52.320Z,9.27
2023-02-21T11:53:25.246Z,10.37
2023-02-21T11:56:08.286Z,9.37
2023-02-21T11:58:44.535Z,10.33
2023-02-21T12:01:18.646Z,10.03
2023-02-21T12:04:05.739Z,8.83
2023-02-21T12:06:42.276Z,9.30
2023-02-21T12:09:16.296Z,8.90
2023-02-21T12:12:02.500Z,8.50
2023-02-21T12:14:45.787Z,9.03
2023-02-21T12:17:28.608Z,9.07
2023-02-21T12:20:26.370Z,8.13
2023-02-21T12:23:12.971Z,7.93
2023-02-21T12:25:54.153Z,8.23
2023-02-21T12:28:39.284Z,9.30
2023-02-21T12:31:20.763Z,8.27
2023-02-21T12:34:04.054Z,8.33
2023-02-21T12:36:45.353Z,8.70
2023-02-21T12:39:27.964Z,7.37
2023-02-21T12:42:12.670Z,8.67
2023-02-21T12:44:56.340Z,8.77
2023-02-21T12:47:30.296Z,7.83
2023-02-21T12:50:05.528Z,7.80
2023-02-21T12:52:41.507Z,8.23
2023-02-21T12:55:19.648Z,7.57
2023-02-21T12:57:54.384Z,8.30
2023-02-21T13:00:26.210Z,7.60
2023-02-21T13:03:03.030Z,7.97
2023-02-21T13:05:40.337Z,7.40
2023-02-21T13:08:21.021Z,9.03
2023-02-21T13:10:56.901Z,8.63
2023-02-21T13:13:32.275Z,9.20
2023-02-21T13:16:03.649Z,8.83
2023-02-21T13:18:36.797Z,8.47
2023-02-21T13:21:24.258Z,7.97
2023-02-21T13:24:20.274Z,9.00
2023-02-21T13:27:00.092Z,8.77
2023-02-21T13:29:31.402Z,9.13
2023-02-21T13:32:02.315Z,8.80
2023-02-21T13:34:37.287Z,8.80
2023-02-21T13:37:14.423Z,8.93
2023-02-21T13:39:46.947Z,9.00
2023-02-21T13:42:20.572Z,8.63
2023-02-21T13:44:51.592Z,8.97
2023-02-21T13:47:21.669Z,10.40
2023-02-21T13:49:53.036Z,9.53
2023-02-21T13:52:38.655Z,9.53
2023-02-21T13:55:34.538Z,9.43
2023-02-21T13:58:43.746Z,9.13
2023-02-21T14:01:40.105Z,10.00
2023-02-21T14:04:45.649Z,9.93
2023-02-21T14:07:14.077Z,9.50
2023-02-21T14:09:44.059Z,10.13
2023-02-21T14:12:16.197Z,10.73
2023-02-21T14:14:47.854Z,10.53
2023-02-21T14:17:18.286Z,10.70
2023-02-21T14:19:51.356Z,9.97
2023-02-21T14:22:31.713Z,9.00
2023-02-21T14:25:10.715Z,9.43
2023-02-21T14:27:40.929Z,9.60
2023-02-21T14:30:29.361Z,9.50
2023-02-21T14:33:09.882Z,9.73
2023-02-21T14:35:46.824Z,9.20
2023-02-21T14:38:23.880Z,8.80
2023-02-21T14:41:07.158Z,9.73
2023-02-21T14:43:56.187Z,9.97
2023-02-21T14:46:54.895Z,9.07
2023-02-21T14:49:45.392Z,9.30
2023-02-21T14:52:48.414Z,8.63
2023-02-21T14:55:32.843Z,8.33
2023-02-21T14:58:40.575Z,8.30
2023-02-21T15:01:25.733Z,8.87
2023-02-21T15:04:03.463Z,8.03
2023-02-21T15:06:34.220Z,7.87
2023-02-21T15:09:13.505Z,7.83
2023-02-21T15:11:43.451Z,8.17
2023-02-21T15:14:23.805Z,8.30
2023-02-21T15:16:55.634Z,8.80
2023-02-21T15:19:29.086Z,9.17
2023-02-21T15:22:25.738Z,10.27
2023-02-21T15:25:21.800Z,12.23
2023-02-21T15:28:02.721Z,10.70
2023-02-21T15:30:39.106Z,8.37
2023-02-21T15:33:14.036Z,8.67
2023-02-21T15:35:46.851Z,8.73
2023-02-21T15:38:21.784Z,9.70
2023-02-21T15:40:51.353Z,8.60
2023-02-21T15:43:37.619Z,10.80
2023-02-21T15:46:12.972Z,9.83
2023-02-21T15:48:41.489Z,10.47
2023-02-21T15:51:11.583Z,9.20
2023-02-21T15:53:40.199Z,8.70
2023-02-21T15:56:24.765Z,8.23
2023-02-21T15:59:11.349Z,7.07
2023-02-21T16:01:41.929Z,7.77
2023-02-21T16:04:21.318Z,7.87
2023-02-21T16:06:53.794Z,8.37
2023-02-21T16:09:29.235Z,6.87
2023-02-21T16:12:02.121Z,7.23
2023-02-21T16:14:39.095Z,7.80
2023-02-21T16:17:17.537Z,7.80
2023-02-21T16:19:49.079Z,7.50
2023-02-21T16:22:38.792Z,7.10
2023-02-21T16:25:19.787Z,7.70
2023-02-21T16:27:51.239Z,6.33
2023-02-21T16:30:22.209Z,7.03
2023-02-21T16:32:54.158Z,8.23
2023-02-21T16:35:24.541Z,8.00
2023-02-21T16:37:57.052Z,8.53
2023-02-21T16:40:27.858Z,8.50
2023-02-21T16:42:57.655Z,8.67
2023-02-21T16:45:26.650Z,7.43
2023-02-21T16:47:59.651Z,7.80
2023-02-21T16:50:31.207Z,7.67
2023-02-21T16:52:59.721Z,8.67
2023-02-21T16:55:28.732Z,7.87
2023-02-21T16:57:59.050Z,7.67
2023-02-21T17:00:27.539Z,9.27
2023-02-21T17:02:57.524Z,8.00
2023-02-21T17:05:26.201Z,9.10
2023-02-21T17:07:55.540Z,8.17
2023-02-21T17:10:24.285Z,8.47
2023-02-21T17:12:52.625Z,7.93
2023-02-21T17:15:21.843Z,8.27
2023-02-21T17:17:53.518Z,19.30
2023-02-21T17:20:24.739Z,12.77
2023-02-21T17:22:53.421Z,10.83
2023-02-21T17:25:23.043Z,11.33
2023-02-21T17:27:51.879Z,9.77
2023-02-21T17:30:22.039Z,10.07
2023-02-21T17:32:50.471Z,10.67
2023-02-21T17:35:20.318Z,10.43
2023-02-21T17:37:51.631Z,9.30
2023-02-21T17:40:22.299Z,9.83
2023-02-21T17:42:50.858Z,10.03
2023-02-21T17:45:20.747Z,9.07
2023-02-21T17:47:50.320Z,9.17
2023-02-21T17:50:19.245Z,9.93
2023-02-21T17:52:50.227Z,8.97
2023-02-21T17:55:21.174Z,8.63
2023-02-21T17:57:50.283Z,9.20
2023-02-21T18:00:23.242Z,8.30
2023-02-21T18:02:52.301Z,8.43
2023-02-21T18:05:21.353Z,9.83
2023-02-21T18:07:53.006Z,9.03
2023-02-21T18:10:24.196Z,8.87
2023-02-21T18:12:53.251Z,10.63
2023-02-21T18:15:22.431Z,10.30
2023-02-21T18:17:50.824Z,10.43
2023-02-21T18:20:19.336Z,10.20
2023-02-21T18:22:50.288Z,10.40
2023-02-21T18:25:21.426Z,9.83
2023-02-21T18:27:49.883Z,9.90
2023-02-21T18:30:18.631Z,8.97
2023-02-21T18:32:47.477Z,9.97
2023-02-21T18:35:16.824Z,8.20
2023-02-21T18:37:46.119Z,9.30
2023-02-21T18:40:16.713Z,8.30
2023-02-21T18:42:45.220Z,8.40
2023-02-21T18:45:13.928Z,7.87
2023-02-21T18:47:42.326Z,7.93
2023-02-21T18:50:11.884Z,7.97
2023-02-21T18:52:40.201Z,8.90
2023-02-21T18:55:09.136Z,8.53
2023-02-21T18:57:40.060Z,8.83
2023-02-21T19:00:11.080Z,8.23
2023-02-21T19:02:39.533Z,9.07
2023-02-21T19:05:08.193Z,8.77
2023-02-21T19:07:37.978Z,8.50
2023-02-21T19:10:07.055Z,7.80
2023-02-21T19:12:35.481Z,7.97
2023-02-21T19:15:05.625Z,8.57
2023-02-21T19:17:35.272Z,8.57
2023-02-21T19:20:04.622Z,7.83
2023-02-21T19:22:33.249Z,7.77
2023-02-21T19:25:01.712Z,8.37
2023-02-21T19:27:30.159Z,6.67
2023-02-21T19:29:58.520Z,7.90
2023-02-21T19:32:29.672Z,7.43
2023-02-21T19:34:58.200Z,8.67
2023-02-21T19:37:26.549Z,7.90
2023-02-21T19:39:55.010Z,7.93
2023-02-21T19:42:23.403Z,7.97
2023-02-21T19:44:51.960Z,7.40
2023-02-21T19:47:20.326Z,7.53
2023-02-21T19:49:50.125Z,8.30
2023-02-21T19:52:18.517Z,7.70
2023-02-21T19:54:48.309Z,7.57
2023-02-21T19:57:16.614Z,7.50
2023-02-21T19:59:45.054Z,8.37
2023-02-21T20:02:15.667Z,9.30
2023-02-21T20:04:44.567Z,9.87
2023-02-21T20:07:14.452Z,7.77
2023-02-21T20:09:43.119Z,7.30
2023-02-21T20:12:11.466Z,8.37
2023-02-21T20:14:46.003Z,7.67
2023-02-21T20:17:15.224Z,7.33
2023-02-21T20:19:43.549Z,7.30
2023-02-21T20:22:13.691Z,7.37
2023-02-21T20:24:46.029Z,7.63
2023-02-21T20:27:15.029Z,7.37
2023-02-21T20:29:43.372Z,6.73
2023-02-21T20:32:11.922Z,6.10
2023-02-21T20:34:41.009Z,7.10
2023-02-21T20:37:11.181Z,7.83
2023-02-21T20:39:41.866Z,6.90
2023-02-21T20:42:10.224Z,7.37
2023-02-21T20:44:39.889Z,7.07
2023-02-21T20:47:10.084Z,8.43
2023-02-21T20:49:39.480Z,9.40
2023-02-21T20:52:08.702Z,8.90
2023-02-21T20:54:37.834Z,10.60
2023-02-21T20:57:07.652Z,10.13
2023-02-21T20:59:39.001Z,9.80
2023-02-21T21:02:08.687Z,9.63
2023-02-21T21:04:39.300Z,9.03
2023-02-21T21:07:12.774Z,7.93
2023-02-21T21:09:41.651Z,7.47
2023-02-21T21:12:13.391Z,8.87
2023-02-21T21:14:44.284Z,10.17
2023-02-21T21:17:16.249Z,7.93
2023-02-21T21:19:46.667Z,8.40
2023-02-21T21:22:17.719Z,8.87
2023-02-21T21:24:46.706Z,8.03
2023-02-21T21:27:16.902Z,7.47
2023-02-21T21:29:47.147Z,8.17
2023-02-21T21:32:17.718Z,8.10
2023-02-21T21:34:46.893Z,7.27
2023-02-21T21:37:16.601Z,8.00
2023-02-21T21:39:45.933Z,7.63
2023-02-21T21:42:17.280Z,8.13
2023-02-21T21:44:52.095Z,7.80
2023-02-21T21:47:21.845Z,7.17
2023-02-21T21:49:50.757Z,8.63
2023-02-21T21:52:20.224Z,7.63
2023-02-21T21:54:49.469Z,7.53
2023-02-21T21:57:19.321Z,7.43
2023-02-21T21:59:51.282Z,6.50
2023-02-21T22:02:21.972Z,7.53
2023-02-21T22:04:53.536Z,6.50
2023-02-21T22:07:23.168Z,6.30
2023-02-21T22:09:51.531Z,8.17
2023-02-21T22:12:21.104Z,6.73
2023-02-21T22:14:50.891Z,7.00
2023-02-21T22:17:19.379Z,7.30
2023-02-21T22:19:47.908Z,7.30
2023-02-21T22:22:17.820Z,6.90
2023-02-21T22:24:46.271Z,7.10
2023-02-21T22:27:14.999Z,7.03
2023-02-21T22:29:43.706Z,6.10
2023-02-21T22:32:16.459Z,7.77
2023-02-21T22:34:44.988Z,6.70
2023-02-21T22:37:14.953Z,7.17
2023-02-21T22:39:43.432Z,7.10
2023-02-21T22:42:12.758Z,7.10
2023-02-21T22:44:43.551Z,8.40
2023-02-21T22:47:13.952Z,8.93
2023-02-21T22:49:45.590Z,8.47
2023-02-21T22:52:14.165Z,7.80
2023-02-21T22:54:42.681Z,7.43
2023-02-21T22:57:11.046Z,6.73
2023-02-21T22:59:39.592Z,7.97
2023-02-21T23:02:08.041Z,7.43
2023-02-21T23:04:38.474Z,6.70
2023-02-21T23:07:06.966Z,8.88
2023-02-21T23:09:37.527Z,7.10
2023-02-21T23:12:07.389Z,7.90
2023-02-21T23:14:36.296Z,7.53
2023-02-21T23:17:05.265Z,7.53
2023-02-21T23:19:34.742Z,7.67
2023-02-21T23:22:06.068Z,7.80
2023-02-21T23:24:34.612Z,8.03
2023-02-21T23:27:08.799Z,7.80
2023-02-21T23:29:39.500Z,7.33
2023-02-21T23:32:10.473Z,8.30
2023-02-21T23:34:42.353Z,8.13
2023-02-21T23:37:13.328Z,8.17
2023-02-21T23:39:42.560Z,10.27
2023-02-21T23:42:11.944Z,10.27
2023-02-21T23:44:41.380Z,8.63
2023-02-21T23:47:09.777Z,8.63
2023-02-21T23:49:44.291Z,6.90
2023-02-21T23:52:15.958Z,9.48
2023-02-21T23:54:44.612Z,8.27
2023-02-21T23:57:13.459Z,8.57
2023-02-21T23:59:42.470Z,7.70
